sensor_id;sensor_type;location;lat;lon;timestamp;P1;durP1;ratioP1;P2;durP2;ratioP2
69057;SDS011;56128;37.534;-122.308;2023-03-21T00:01:44;6.70;;;1.80;;
69057;SDS011;56128;37.534;-122.308;2023-03-21T00:04:10;7.63;;;1.83;;
69057;SDS011;56128;37.534;-122.308;2023-03-21T00:06:37;7.70;;;1.90;;
69057;SDS011;56128;37.534;-122.308;2023-03-21T00:09:03;6.45;;;1.48;;
69057;SDS011;56128;37.534;-122.308;2023-03-21T00:11:29;5.80;;;1.58;;
69057;SDS011;56128;37.534;-122.308;2023-03-21T00:13:55;5.93;;;1.60;;
69057;SDS011;56128;37.534;-122.308;2023-03-21T00:16:26;7.45;;;1.85;;
69057;SDS011;56128;37.534;-122.308;2023-03-21T00:18:54;6.32;;;1.30;;
69057;SDS011;56128;37.534;-122.308;2023-03-21T00:21:22;7.20;;;1.52;;
69057;SDS011;56128;37.534;-122.308;2023-03-21T00:23:53;5.13;;;1.42;;
69057;SDS011;56128;37.534;-122.308;2023-03-21T00:26:20;4.45;;;1.23;;
69057;SDS011;56128;37.534;-122.308;2023-03-21T00:28:47;6.50;;;1.50;;
69057;SDS011;56128;37.534;-122.308;2023-03-21T00:31:13;7.07;;;2.08;;
69057;SDS011;56128;37.534;-122.308;2023-03-21T00:33:40;6.63;;;1.58;;
69057;SDS011;56128;37.534;-122.308;2023-03-21T00:36:06;5.82;;;1.95;;
69057;SDS011;56128;37.534;-122.308;2023-03-21T00:38:34;4.75;;;1.70;;
69057;SDS011;56128;37.534;-122.308;2023-03-21T00:41:07;6.47;;;2.00;;
69057;SDS011;56128;37.534;-122.308;2023-03-21T00:43:36;4.90;;;1.70;;
69057;SDS011;56128;37.534;-122.308;2023-03-21T00:46:03;6.15;;;1.70;;
69057;SDS011;56128;37.534;-122.308;2023-03-21T00:48:29;4.22;;;1.50;;
69057;SDS011;56128;37.534;-122.308;2023-03-21T00:50:56;6.30;;;2.00;;
69057;SDS011;56128;37.534;-122.308;2023-03-21T00:53:25;4.93;;;1.67;;
69057;SDS011;56128;37.534;-122.308;2023-03-21T00:55:52;8.93;;;1.83;;
69057;SDS011;56128;37.534;-122.308;2023-03-21T00:58:18;9.88;;;2.20;;
69057;SDS011;56128;37.534;-122.308;2023-03-21T01:00:44;6.38;;;1.73;;
69057;SDS011;56128;37.534;-122.308;2023-03-21T01:03:11;5.22;;;1.88;;
69057;SDS011;56128;37.534;-122.308;2023-03-21T01:05:42;6.60;;;2.03;;
69057;SDS011;56128;37.534;-122.308;2023-03-21T01:08:28;4.57;;;1.70;;
69057;SDS011;56128;37.534;-122.308;2023-03-21T01:10:56;6.95;;;1.83;;
69057;SDS011;56128;37.534;-122.308;2023-03-21T01:13:26;6.85;;;2.10;;
69057;SDS011;56128;37.534;-122.308;2023-03-21T01:15:53;6.50;;;1.75;;
69057;SDS011;56128;37.534;-122.308;2023-03-21T01:18:24;10.25;;;2.30;;
69057;SDS011;56128;37.534;-122.308;2023-03-21T01:20:53;6.85;;;1.92;;
69057;SDS011;56128;37.534;-122.308;2023-03-21T01:23:20;4.75;;;1.50;;
69057;SDS011;56128;37.534;-122.308;2023-03-21T01:25:47;8.93;;;1.77;;
69057;SDS011;56128;37.534;-122.308;2023-03-21T01:28:14;3.42;;;1.70;;
69057;SDS011;56128;37.534;-122.308;2023-03-21T01:30:44;5.43;;;1.88;;
69057;SDS011;56128;37.534;-122.308;2023-03-21T01:33:12;9.02;;;1.90;;
69057;SDS011;56128;37.534;-122.308;2023-03-21T01:35:39;7.70;;;2.03;;
69057;SDS011;56128;37.534;-122.308;2023-03-21T01:38:05;8.35;;;1.80;;
69057;SDS011;56128;37.534;-122.308;2023-03-21T01:40:34;3.95;;;1.55;;
69057;SDS011;56128;37.534;-122.308;2023-03-21T01:43:01;7.75;;;1.67;;
69057;SDS011;56128;37.534;-122.308;2023-03-21T01:48:31;7.15;;;1.83;;
69057;SDS011;56128;37.534;-122.308;2023-03-21T01:50:58;8.60;;;1.80;;
69057;SDS011;56128;37.534;-122.308;2023-03-21T01:53:26;6.78;;;1.40;;
69057;SDS011;56128;37.534;-122.308;2023-03-21T01:55:56;8.23;;;1.67;;
69057;SDS011;56128;37.534;-122.308;2023-03-21T01:58:28;6.45;;;1.98;;
69057;SDS011;56128;37.534;-122.308;2023-03-21T02:00:56;6.03;;;1.60;;
69057;SDS011;56128;37.534;-122.308;2023-03-21T02:03:23;8.57;;;1.90;;
69057;SDS011;56128;37.534;-122.308;2023-03-21T02:05:58;8.70;;;2.47;;
69057;SDS011;56128;37.534;-122.308;2023-03-21T02:08:26;6.40;;;1.77;;
69057;SDS011;56128;37.534;-122.308;2023-03-21T02:10:55;5.45;;;1.65;;
69057;SDS011;56128;37.534;-122.308;2023-03-21T02:13:22;8.50;;;1.80;;
69057;SDS011;56128;37.534;-122.308;2023-03-21T02:15:54;9.95;;;2.00;;
69057;SDS011;56128;37.534;-122.308;2023-03-21T02:34:49;4.03;;;1.95;;
69057;SDS011;56128;37.534;-122.308;2023-03-21T02:37:46;7.93;;;2.42;;
69057;SDS011;56128;37.534;-122.308;2023-03-21T02:40:24;8.93;;;2.15;;
69057;SDS011;56128;37.534;-122.308;2023-03-21T02:43:08;11.05;;;2.45;;
69057;SDS011;56128;37.534;-122.308;2023-03-21T02:46:00;7.82;;;2.47;;
69057;SDS011;56128;37.534;-122.308;2023-03-21T02:48:42;5.93;;;2.20;;
69057;SDS011;56128;37.534;-122.308;2023-03-21T02:51:18;6.15;;;2.17;;
69057;SDS011;56128;37.534;-122.308;2023-03-21T02:53:55;6.72;;;2.10;;
69057;SDS011;56128;37.534;-122.308;2023-03-21T02:56:25;8.32;;;1.85;;
69057;SDS011;56128;37.534;-122.308;2023-03-21T02:58:52;8.63;;;2.25;;
69057;SDS011;56128;37.534;-122.308;2023-03-21T03:01:19;8.63;;;2.25;;
69057;SDS011;56128;37.534;-122.308;2023-03-21T03:03:45;5.68;;;1.73;;
69057;SDS011;56128;37.534;-122.308;2023-03-21T03:06:18;5.07;;;1.92;;
69057;SDS011;56128;37.534;-122.308;2023-03-21T03:11:33;5.38;;;1.92;;
69057;SDS011;56128;37.534;-122.308;2023-03-21T03:14:08;4.45;;;1.70;;
69057;SDS011;56128;37.534;-122.308;2023-03-21T03:19:26;11.02;;;1.95;;
69057;SDS011;56128;37.534;-122.308;2023-03-21T03:22:00;4.30;;;1.80;;
69057;SDS011;56128;37.534;-122.308;2023-03-21T03:24:37;7.03;;;2.13;;
69057;SDS011;56128;37.534;-122.308;2023-03-21T03:27:34;4.65;;;1.42;;
69057;SDS011;56128;37.534;-122.308;2023-03-21T03:30:06;4.70;;;1.55;;
69057;SDS011;56128;37.534;-122.308;2023-03-21T03:35:09;4.55;;;1.75;;
69057;SDS011;56128;37.534;-122.308;2023-03-21T03:37:38;4.80;;;1.58;;
69057;SDS011;56128;37.534;-122.308;2023-03-21T03:43:08;5.85;;;1.80;;
69057;SDS011;56128;37.534;-122.308;2023-03-21T03:45:48;4.57;;;1.55;;
69057;SDS011;56128;37.534;-122.308;2023-03-21T03:48:28;9.73;;;2.03;;
69057;SDS011;56128;37.534;-122.308;2023-03-21T03:51:05;6.40;;;1.73;;
69057;SDS011;56128;37.534;-122.308;2023-03-21T03:53:39;8.52;;;2.28;;
69057;SDS011;56128;37.534;-122.308;2023-03-21T03:56:07;8.57;;;2.35;;
69057;SDS011;56128;37.534;-122.308;2023-03-21T03:58:36;6.82;;;2.22;;
69057;SDS011;56128;37.534;-122.308;2023-03-21T04:01:06;9.98;;;2.72;;
69057;SDS011;56128;37.534;-122.308;2023-03-21T04:03:53;7.55;;;3.08;;
69057;SDS011;56128;37.534;-122.308;2023-03-21T04:06:19;7.00;;;1.83;;
69057;SDS011;56128;37.534;-122.308;2023-03-21T04:08:46;5.40;;;1.65;;
69057;SDS011;56128;37.534;-122.308;2023-03-21T04:11:13;6.45;;;1.90;;
69057;SDS011;56128;37.534;-122.308;2023-03-21T04:13:40;9.93;;;1.90;;
69057;SDS011;56128;37.534;-122.308;2023-03-21T04:16:07;7.22;;;1.63;;
69057;SDS011;56128;37.534;-122.308;2023-03-21T04:18:35;5.18;;;1.73;;
69057;SDS011;56128;37.534;-122.308;2023-03-21T04:21:06;5.45;;;1.70;;
69057;SDS011;56128;37.534;-122.308;2023-03-21T04:23:34;5.50;;;1.60;;
69057;SDS011;56128;37.534;-122.308;2023-03-21T04:26:01;4.03;;;1.63;;
69057;SDS011;56128;37.534;-122.308;2023-03-21T04:28:28;8.73;;;1.80;;
69057;SDS011;56128;37.534;-122.308;2023-03-21T04:30:54;4.35;;;1.65;;
69057;SDS011;56128;37.534;-122.308;2023-03-21T04:33:22;8.80;;;2.88;;
69057;SDS011;56128;37.534;-122.308;2023-03-21T04:35:51;8.65;;;2.08;;
69057;SDS011;56128;37.534;-122.308;2023-03-21T04:38:21;5.55;;;1.52;;
69057;SDS011;56128;37.534;-122.308;2023-03-21T04:40:48;7.55;;;2.13;;
69057;SDS011;56128;37.534;-122.308;2023-03-21T04:43:14;7.55;;;1.73;;
69057;SDS011;56128;37.534;-122.308;2023-03-21T04:45:40;5.93;;;2.10;;
69057;SDS011;56128;37.534;-122.308;2023-03-21T04:48:07;7.88;;;2.30;;
69057;SDS011;56128;37.534;-122.308;2023-03-21T04:50:33;7.05;;;1.40;;
69057;SDS011;56128;37.534;-122.308;2023-03-21T04:53:00;7.75;;;1.92;;
69057;SDS011;56128;37.534;-122.308;2023-03-21T04:55:28;8.32;;;1.90;;
69057;SDS011;56128;37.534;-122.308;2023-03-21T04:57:56;6.80;;;1.92;;
69057;SDS011;56128;37.534;-122.308;2023-03-21T05:00:22;3.97;;;1.52;;
69057;SDS011;56128;37.534;-122.308;2023-03-21T05:02:49;5.10;;;1.65;;
69057;SDS011;56128;37.534;-122.308;2023-03-21T05:05:16;7.13;;;1.80;;
69057;SDS011;56128;37.534;-122.308;2023-03-21T05:07:42;6.88;;;1.75;;
69057;SDS011;56128;37.534;-122.308;2023-03-21T05:10:09;4.38;;;1.75;;
69057;SDS011;56128;37.534;-122.308;2023-03-21T05:12:36;6.55;;;1.67;;
69057;SDS011;56128;37.534;-122.308;2023-03-21T05:15:03;7.00;;;1.88;;
69057;SDS011;56128;37.534;-122.308;2023-03-21T05:17:30;6.57;;;1.85;;
69057;SDS011;56128;37.534;-122.308;2023-03-21T05:19:56;5.40;;;1.70;;
69057;SDS011;56128;37.534;-122.308;2023-03-21T05:22:22;11.88;;;1.92;;
69057;SDS011;56128;37.534;-122.308;2023-03-21T05:24:51;7.15;;;1.88;;
69057;SDS011;56128;37.534;-122.308;2023-03-21T05:27:20;5.25;;;1.90;;
69057;SDS011;56128;37.534;-122.308;2023-03-21T05:30:04;8.45;;;2.58;;
69057;SDS011;56128;37.534;-122.308;2023-03-21T05:32:31;5.85;;;1.58;;
69057;SDS011;56128;37.534;-122.308;2023-03-21T05:34:58;8.25;;;2.13;;
69057;SDS011;56128;37.534;-122.308;2023-03-21T05:37:25;6.63;;;1.90;;
69057;SDS011;56128;37.534;-122.308;2023-03-21T05:39:51;5.75;;;2.20;;
69057;SDS011;56128;37.534;-122.308;2023-03-21T05:42:17;9.20;;;2.15;;
69057;SDS011;56128;37.534;-122.308;2023-03-21T05:44:44;9.40;;;2.13;;
69057;SDS011;56128;37.534;-122.308;2023-03-21T05:47:11;8.45;;;1.92;;
69057;SDS011;56128;37.534;-122.308;2023-03-21T05:49:38;7.65;;;2.38;;
69057;SDS011;56128;37.534;-122.308;2023-03-21T05:52:05;4.45;;;2.00;;
69057;SDS011;56128;37.534;-122.308;2023-03-21T05:54:31;6.00;;;2.53;;
69057;SDS011;56128;37.534;-122.308;2023-03-21T05:56:58;8.95;;;2.25;;
69057;SDS011;56128;37.534;-122.308;2023-03-21T05:59:25;3.55;;;1.65;;
69057;SDS011;56128;37.534;-122.308;2023-03-21T06:01:51;6.25;;;2.92;;
69057;SDS011;56128;37.534;-122.308;2023-03-21T06:04:17;7.60;;;1.90;;
69057;SDS011;56128;37.534;-122.308;2023-03-21T06:06:43;4.30;;;1.63;;
69057;SDS011;56128;37.534;-122.308;2023-03-21T06:09:10;9.73;;;2.33;;
69057;SDS011;56128;37.534;-122.308;2023-03-21T06:11:38;6.85;;;1.83;;
69057;SDS011;56128;37.534;-122.308;2023-03-21T06:14:08;6.68;;;1.80;;
69057;SDS011;56128;37.534;-122.308;2023-03-21T06:16:34;6.60;;;2.03;;
69057;SDS011;56128;37.534;-122.308;2023-03-21T06:19:01;9.07;;;1.95;;
69057;SDS011;56128;37.534;-122.308;2023-03-21T06:21:27;7.35;;;1.83;;
69057;SDS011;56128;37.534;-122.308;2023-03-21T06:23:53;5.05;;;1.77;;
69057;SDS011;56128;37.534;-122.308;2023-03-21T06:26:19;8.88;;;2.45;;
69057;SDS011;56128;37.534;-122.308;2023-03-21T06:28:50;11.05;;;2.88;;
69057;SDS011;56128;37.534;-122.308;2023-03-21T06:31:17;7.88;;;2.20;;
69057;SDS011;56128;37.534;-122.308;2023-03-21T06:33:47;7.28;;;2.50;;
69057;SDS011;56128;37.534;-122.308;2023-03-21T06:36:14;9.07;;;2.50;;
69057;SDS011;56128;37.534;-122.308;2023-03-21T06:38:40;7.80;;;2.08;;
69057;SDS011;56128;37.534;-122.308;2023-03-21T06:41:06;4.95;;;1.60;;
69057;SDS011;56128;37.534;-122.308;2023-03-21T06:43:33;4.88;;;1.70;;
69057;SDS011;56128;37.534;-122.308;2023-03-21T06:46:00;8.43;;;2.20;;
69057;SDS011;56128;37.534;-122.308;2023-03-21T06:48:26;6.25;;;1.67;;
69057;SDS011;56128;37.534;-122.308;2023-03-21T06:50:53;6.22;;;1.85;;
69057;SDS011;56128;37.534;-122.308;2023-03-21T06:53:21;6.88;;;2.00;;
69057;SDS011;56128;37.534;-122.308;2023-03-21T06:55:52;6.50;;;1.95;;
69057;SDS011;56128;37.534;-122.308;2023-03-21T06:58:19;7.30;;;2.00;;
69057;SDS011;56128;37.534;-122.308;2023-03-21T07:00:46;4.13;;;1.83;;
69057;SDS011;56128;37.534;-122.308;2023-03-21T07:03:13;4.43;;;1.70;;
69057;SDS011;56128;37.534;-122.308;2023-03-21T07:05:40;7.05;;;1.80;;
69057;SDS011;56128;37.534;-122.308;2023-03-21T07:08:07;5.90;;;1.73;;
69057;SDS011;56128;37.534;-122.308;2023-03-21T07:10:43;6.13;;;2.35;;
69057;SDS011;56128;37.534;-122.308;2023-03-21T07:13:13;6.70;;;2.50;;
69057;SDS011;56128;37.534;-122.308;2023-03-21T07:15:39;7.22;;;1.77;;
69057;SDS011;56128;37.534;-122.308;2023-03-21T07:18:07;8.90;;;2.50;;
69057;SDS011;56128;37.534;-122.308;2023-03-21T07:20:34;6.00;;;1.75;;
69057;SDS011;56128;37.534;-122.308;2023-03-21T07:23:02;9.55;;;2.50;;
69057;SDS011;56128;37.534;-122.308;2023-03-21T07:25:29;5.97;;;2.30;;
69057;SDS011;56128;37.534;-122.308;2023-03-21T07:27:55;6.45;;;2.25;;
69057;SDS011;56128;37.534;-122.308;2023-03-21T07:30:21;10.25;;;2.60;;
69057;SDS011;56128;37.534;-122.308;2023-03-21T07:32:48;5.40;;;1.92;;
69057;SDS011;56128;37.534;-122.308;2023-03-21T07:35:15;6.45;;;2.28;;
69057;SDS011;56128;37.534;-122.308;2023-03-21T07:37:42;5.32;;;1.90;;
69057;SDS011;56128;37.534;-122.308;2023-03-21T07:40:09;6.55;;;2.00;;
69057;SDS011;56128;37.534;-122.308;2023-03-21T07:42:40;6.03;;;1.63;;
69057;SDS011;56128;37.534;-122.308;2023-03-21T07:45:07;6.13;;;1.90;;
69057;SDS011;56128;37.534;-122.308;2023-03-21T07:47:34;8.38;;;2.17;;
69057;SDS011;56128;37.534;-122.308;2023-03-21T07:50:01;6.22;;;2.05;;
69057;SDS011;56128;37.534;-122.308;2023-03-21T07:52:28;6.55;;;1.83;;
69057;SDS011;56128;37.534;-122.308;2023-03-21T07:54:55;7.82;;;2.00;;
69057;SDS011;56128;37.534;-122.308;2023-03-21T07:57:21;5.85;;;2.50;;
69057;SDS011;56128;37.534;-122.308;2023-03-21T07:59:47;8.27;;;2.60;;
69057;SDS011;56128;37.534;-122.308;2023-03-21T08:02:14;5.82;;;2.28;;
69057;SDS011;56128;37.534;-122.308;2023-03-21T08:04:41;3.88;;;1.55;;
69057;SDS011;56128;37.534;-122.308;2023-03-21T08:07:08;6.53;;;1.83;;
69057;SDS011;56128;37.534;-122.308;2023-03-21T08:09:35;7.28;;;2.10;;
69057;SDS011;56128;37.534;-122.308;2023-03-21T08:12:02;6.80;;;2.22;;
69057;SDS011;56128;37.534;-122.308;2023-03-21T08:14:29;6.50;;;2.05;;
69057;SDS011;56128;37.534;-122.308;2023-03-21T08:16:56;4.95;;;2.13;;
69057;SDS011;56128;37.534;-122.308;2023-03-21T08:19:22;6.20;;;2.13;;
69057;SDS011;56128;37.534;-122.308;2023-03-21T08:21:48;6.55;;;2.17;;
69057;SDS011;56128;37.534;-122.308;2023-03-21T08:24:16;6.30;;;2.00;;
69057;SDS011;56128;37.534;-122.308;2023-03-21T08:26:42;6.18;;;2.25;;
69057;SDS011;56128;37.534;-122.308;2023-03-21T08:29:13;4.60;;;2.05;;
69057;SDS011;56128;37.534;-122.308;2023-03-21T08:31:39;5.88;;;2.30;;
69057;SDS011;56128;37.534;-122.308;2023-03-21T08:34:05;6.22;;;2.15;;
69057;SDS011;56128;37.534;-122.308;2023-03-21T08:36:32;7.20;;;2.35;;
69057;SDS011;56128;37.534;-122.308;2023-03-21T08:39:01;3.53;;;1.95;;
69057;SDS011;56128;37.534;-122.308;2023-03-21T08:41:33;7.20;;;2.30;;
69057;SDS011;56128;37.534;-122.308;2023-03-21T08:44:01;5.63;;;1.90;;
69057;SDS011;56128;37.534;-122.308;2023-03-21T08:46:29;5.25;;;1.70;;
69057;SDS011;56128;37.534;-122.308;2023-03-21T08:48:55;5.75;;;2.10;;
69057;SDS011;56128;37.534;-122.308;2023-03-21T08:51:21;5.20;;;2.28;;
69057;SDS011;56128;37.534;-122.308;2023-03-21T08:53:48;7.57;;;2.13;;
69057;SDS011;56128;37.534;-122.308;2023-03-21T08:56:15;5.35;;;1.95;;
69057;SDS011;56128;37.534;-122.308;2023-03-21T08:58:42;7.38;;;2.50;;
69057;SDS011;56128;37.534;-122.308;2023-03-21T09:01:09;3.35;;;2.10;;
69057;SDS011;56128;37.534;-122.308;2023-03-21T09:03:40;4.85;;;2.17;;
69057;SDS011;56128;37.534;-122.308;2023-03-21T09:06:07;3.70;;;1.85;;
69057;SDS011;56128;37.534;-122.308;2023-03-21T09:08:38;4.93;;;1.92;;
69057;SDS011;56128;37.534;-122.308;2023-03-21T09:11:06;8.00;;;2.08;;
69057;SDS011;56128;37.534;-122.308;2023-03-21T09:13:33;6.65;;;2.08;;
69057;SDS011;56128;37.534;-122.308;2023-03-21T09:15:59;5.57;;;2.47;;
69057;SDS011;56128;37.534;-122.308;2023-03-21T09:18:26;6.00;;;2.40;;
69057;SDS011;56128;37.534;-122.308;2023-03-21T09:21:12;7.55;;;2.25;;
69057;SDS011;56128;37.534;-122.308;2023-03-21T09:23:40;11.82;;;2.38;;
69057;SDS011;56128;37.534;-122.308;2023-03-21T09:26:07;5.65;;;2.90;;
69057;SDS011;56128;37.534;-122.308;2023-03-21T09:28:34;5.90;;;1.83;;
69057;SDS011;56128;37.534;-122.308;2023-03-21T09:31:05;4.82;;;1.98;;
69057;SDS011;56128;37.534;-122.308;2023-03-21T09:33:35;7.35;;;2.42;;
69057;SDS011;56128;37.534;-122.308;2023-03-21T09:36:03;9.13;;;2.40;;
69057;SDS011;56128;37.534;-122.308;2023-03-21T09:38:36;4.22;;;1.88;;
69057;SDS011;56128;37.534;-122.308;2023-03-21T09:49:29;8.50;;;2.40;;
69057;SDS011;56128;37.534;-122.308;2023-03-21T09:52:00;4.97;;;2.08;;
69057;SDS011;56128;37.534;-122.308;2023-03-21T09:54:37;4.57;;;2.15;;
69057;SDS011;56128;37.534;-122.308;2023-03-21T09:57:49;5.95;;;2.03;;
69057;SDS011;56128;37.534;-122.308;2023-03-21T10:00:11;5.75;;;2.28;;
69057;SDS011;56128;37.534;-122.308;2023-03-21T10:02:47;5.93;;;1.80;;
69057;SDS011;56128;37.534;-122.308;2023-03-21T10:05:24;5.18;;;2.25;;
69057;SDS011;56128;37.534;-122.308;2023-03-21T10:07:57;7.35;;;2.00;;
69057;SDS011;56128;37.534;-122.308;2023-03-21T10:10:34;7.68;;;1.95;;
69057;SDS011;56128;37.534;-122.308;2023-03-21T10:13:04;6.93;;;2.20;;
69057;SDS011;56128;37.534;-122.308;2023-03-21T10:15:38;4.80;;;2.42;;
69057;SDS011;56128;37.534;-122.308;2023-03-21T10:18:05;7.93;;;2.35;;
69057;SDS011;56128;37.534;-122.308;2023-03-21T10:20:34;3.80;;;1.92;;
69057;SDS011;56128;37.534;-122.308;2023-03-21T10:23:05;7.63;;;2.80;;
69057;SDS011;56128;37.534;-122.308;2023-03-21T10:25:41;5.97;;;2.00;;
69057;SDS011;56128;37.534;-122.308;2023-03-21T10:28:14;5.75;;;2.03;;
69057;SDS011;56128;37.534;-122.308;2023-03-21T10:30:52;5.73;;;2.27;;
69057;SDS011;56128;37.534;-122.308;2023-03-21T10:33:28;5.50;;;1.98;;
69057;SDS011;56128;37.534;-122.308;2023-03-21T10:36:04;8.27;;;2.25;;
69057;SDS011;56128;37.534;-122.308;2023-03-21T10:38:44;6.63;;;2.45;;
69057;SDS011;56128;37.534;-122.308;2023-03-21T10:41:14;4.07;;;2.00;;
69057;SDS011;56128;37.534;-122.308;2023-03-21T10:43:41;5.28;;;1.80;;
69057;SDS011;56128;37.534;-122.308;2023-03-21T10:46:19;7.07;;;2.00;;
69057;SDS011;56128;37.534;-122.308;2023-03-21T10:48:49;5.43;;;1.95;;
69057;SDS011;56128;37.534;-122.308;2023-03-21T10:51:21;4.53;;;2.13;;
69057;SDS011;56128;37.534;-122.308;2023-03-21T10:53:55;5.07;;;1.75;;
69057;SDS011;56128;37.534;-122.308;2023-03-21T10:56:25;6.72;;;2.08;;
69057;SDS011;56128;37.534;-122.308;2023-03-21T10:58:55;4.35;;;2.03;;
69057;SDS011;56128;37.534;-122.308;2023-03-21T11:01:25;6.00;;;2.20;;
69057;SDS011;56128;37.534;-122.308;2023-03-21T11:04:09;4.93;;;2.05;;
69057;SDS011;56128;37.534;-122.308;2023-03-21T11:06:41;5.47;;;2.40;;
69057;SDS011;56128;37.534;-122.308;2023-03-21T11:09:15;4.93;;;2.08;;
69057;SDS011;56128;37.534;-122.308;2023-03-21T11:11:50;4.18;;;1.67;;
69057;SDS011;56128;37.534;-122.308;2023-03-21T11:17:37;8.38;;;2.35;;
69057;SDS011;56128;37.534;-122.308;2023-03-21T11:20:01;5.05;;;2.10;;
69057;SDS011;56128;37.534;-122.308;2023-03-21T11:22:35;8.65;;;2.20;;
69057;SDS011;56128;37.534;-122.308;2023-03-21T11:25:06;8.13;;;2.10;;
69057;SDS011;56128;37.534;-122.308;2023-03-21T11:27:36;9.73;;;2.20;;
69057;SDS011;56128;37.534;-122.308;2023-03-21T11:30:19;8.30;;;2.13;;
69057;SDS011;56128;37.534;-122.308;2023-03-21T11:32:54;5.40;;;2.63;;
69057;SDS011;56128;37.534;-122.308;2023-03-21T11:35:22;3.83;;;2.15;;
69057;SDS011;56128;37.534;-122.308;2023-03-21T11:37:55;5.40;;;2.20;;
69057;SDS011;56128;37.534;-122.308;2023-03-21T11:40:28;7.05;;;2.30;;
69057;SDS011;56128;37.534;-122.308;2023-03-21T11:42:57;7.28;;;2.40;;
69057;SDS011;56128;37.534;-122.308;2023-03-21T11:48:00;4.78;;;2.35;;
69057;SDS011;56128;37.534;-122.308;2023-03-21T11:50:39;4.63;;;1.85;;
69057;SDS011;56128;37.534;-122.308;2023-03-21T11:56:07;7.40;;;2.08;;
69057;SDS011;56128;37.534;-122.308;2023-03-21T12:04:31;5.97;;;2.10;;
69057;SDS011;56128;37.534;-122.308;2023-03-21T12:10:34;5.15;;;2.10;;
69057;SDS011;56128;37.534;-122.308;2023-03-21T12:21:06;9.52;;;2.38;;
69057;SDS011;56128;37.534;-122.308;2023-03-21T12:24:00;7.85;;;2.72;;
69057;SDS011;56128;37.534;-122.308;2023-03-21T12:35:12;6.40;;;2.20;;
69057;SDS011;56128;37.534;-122.308;2023-03-21T12:37:43;9.32;;;2.63;;
69057;SDS011;56128;37.534;-122.308;2023-03-21T12:46:02;10.15;;;2.75;;
69057;SDS011;56128;37.534;-122.308;2023-03-21T12:51:17;10.77;;;2.70;;
69057;SDS011;56128;37.534;-122.308;2023-03-21T12:54:01;8.25;;;2.92;;
69057;SDS011;56128;37.534;-122.308;2023-03-21T12:56:49;6.45;;;2.38;;
69057;SDS011;56128;37.534;-122.308;2023-03-21T13:01:59;8.70;;;3.10;;
69057;SDS011;56128;37.534;-122.308;2023-03-21T13:04:51;9.23;;;3.15;;
69057;SDS011;56128;37.534;-122.308;2023-03-21T13:07:19;9.85;;;2.63;;
69057;SDS011;56128;37.534;-122.308;2023-03-21T13:09:49;6.25;;;2.75;;
69057;SDS011;56128;37.534;-122.308;2023-03-21T13:18:08;6.03;;;2.53;;
69057;SDS011;56128;37.534;-122.308;2023-03-21T13:21:00;8.10;;;2.78;;
69057;SDS011;56128;37.534;-122.308;2023-03-21T13:23:36;8.23;;;3.00;;
69057;SDS011;56128;37.534;-122.308;2023-03-21T13:26:03;5.70;;;2.83;;
69057;SDS011;56128;37.534;-122.308;2023-03-21T13:31:17;7.00;;;2.58;;
69057;SDS011;56128;37.534;-122.308;2023-03-21T13:33:47;6.88;;;2.90;;
69057;SDS011;56128;37.534;-122.308;2023-03-21T13:36:15;9.45;;;3.05;;
69057;SDS011;56128;37.534;-122.308;2023-03-21T13:38:48;7.32;;;2.97;;
69057;SDS011;56128;37.534;-122.308;2023-03-21T13:41:18;6.47;;;3.22;;
69057;SDS011;56128;37.534;-122.308;2023-03-21T13:43:55;9.68;;;3.10;;
69057;SDS011;56128;37.534;-122.308;2023-03-21T13:47:00;8.93;;;3.00;;
69057;SDS011;56128;37.534;-122.308;2023-03-21T13:49:35;14.05;;;3.58;;
69057;SDS011;56128;37.534;-122.308;2023-03-21T13:57:04;11.05;;;3.65;;
69057;SDS011;56128;37.534;-122.308;2023-03-21T14:02:17;8.32;;;2.95;;
69057;SDS011;56128;37.534;-122.308;2023-03-21T14:04:45;13.30;;;3.85;;
69057;SDS011;56128;37.534;-122.308;2023-03-21T14:07:22;11.35;;;3.90;;
69057;SDS011;56128;37.534;-122.308;2023-03-21T14:09:53;9.13;;;3.63;;
69057;SDS011;56128;37.534;-122.308;2023-03-21T14:12:45;13.38;;;3.80;;
69057;SDS011;56128;37.534;-122.308;2023-03-21T14:15:21;12.88;;;3.90;;
69057;SDS011;56128;37.534;-122.308;2023-03-21T14:17:53;11.75;;;4.85;;
69057;SDS011;56128;37.534;-122.308;2023-03-21T14:20:25;10.50;;;3.58;;
69057;SDS011;56128;37.534;-122.308;2023-03-21T14:22:56;8.80;;;3.55;;
69057;SDS011;56128;37.534;-122.308;2023-03-21T14:25:24;8.23;;;3.78;;
69057;SDS011;56128;37.534;-122.308;2023-03-21T14:27:58;13.98;;;3.67;;
69057;SDS011;56128;37.534;-122.308;2023-03-21T14:30:32;11.13;;;3.55;;
69057;SDS011;56128;37.534;-122.308;2023-03-21T14:35:47;9.88;;;3.55;;
69057;SDS011;56128;37.534;-122.308;2023-03-21T14:38:18;12.95;;;3.47;;
69057;SDS011;56128;37.534;-122.308;2023-03-21T14:40:47;13.30;;;4.15;;
69057;SDS011;56128;37.534;-122.308;2023-03-21T14:43:16;8.32;;;4.28;;
69057;SDS011;56128;37.534;-122.308;2023-03-21T14:45:46;11.43;;;4.35;;
69057;SDS011;56128;37.534;-122.308;2023-03-21T14:48:14;12.88;;;3.97;;
69057;SDS011;56128;37.534;-122.308;2023-03-21T14:50:42;13.93;;;4.50;;
69057;SDS011;56128;37.534;-122.308;2023-03-21T14:53:13;10.65;;;4.10;;
69057;SDS011;56128;37.534;-122.308;2023-03-21T14:58:38;12.00;;;4.40;;
69057;SDS011;56128;37.534;-122.308;2023-03-21T15:01:11;11.30;;;4.90;;
69057;SDS011;56128;37.534;-122.308;2023-03-21T15:03:50;13.85;;;5.00;;
69057;SDS011;56128;37.534;-122.308;2023-03-21T15:06:16;16.33;;;5.20;;
69057;SDS011;56128;37.534;-122.308;2023-03-21T15:08:55;20.80;;;5.55;;
69057;SDS011;56128;37.534;-122.308;2023-03-21T15:11:36;17.60;;;5.50;;
69057;SDS011;56128;37.534;-122.308;2023-03-21T15:14:07;13.52;;;5.63;;
69057;SDS011;56128;37.534;-122.308;2023-03-21T15:16:37;16.15;;;5.03;;
69057;SDS011;56128;37.534;-122.308;2023-03-21T15:19:04;13.23;;;5.32;;
69057;SDS011;56128;37.534;-122.308;2023-03-21T15:21:37;16.27;;;5.18;;
69057;SDS011;56128;37.534;-122.308;2023-03-21T15:24:14;13.45;;;5.70;;
69057;SDS011;56128;37.534;-122.308;2023-03-21T15:26:47;11.10;;;5.03;;
69057;SDS011;56128;37.534;-122.308;2023-03-21T15:29:15;19.35;;;5.95;;
69057;SDS011;56128;37.534;-122.308;2023-03-21T15:31:42;14.88;;;5.93;;
69057;SDS011;56128;37.534;-122.308;2023-03-21T15:34:31;15.55;;;6.43;;
69057;SDS011;56128;37.534;-122.308;2023-03-21T15:37:02;13.43;;;6.25;;
69057;SDS011;56128;37.534;-122.308;2023-03-21T15:39:30;15.80;;;7.03;;
69057;SDS011;56128;37.534;-122.308;2023-03-21T15:44:51;16.42;;;7.47;;
69057;SDS011;56128;37.534;-122.308;2023-03-21T15:50:15;16.65;;;8.05;;
69057;SDS011;56128;37.534;-122.308;2023-03-21T15:52:53;21.88;;;7.78;;
69057;SDS011;56128;37.534;-122.308;2023-03-21T15:55:26;19.25;;;7.90;;
69057;SDS011;56128;37.534;-122.308;2023-03-21T15:58:02;18.95;;;7.93;;
69057;SDS011;56128;37.534;-122.308;2023-03-21T16:00:41;17.00;;;7.38;;
69057;SDS011;56128;37.534;-122.308;2023-03-21T16:03:25;13.38;;;6.55;;
69057;SDS011;56128;37.534;-122.308;2023-03-21T16:08:46;11.32;;;5.53;;
69057;SDS011;56128;37.534;-122.308;2023-03-21T16:11:24;15.15;;;5.80;;
69057;SDS011;56128;37.534;-122.308;2023-03-21T16:13:53;11.65;;;4.90;;
69057;SDS011;56128;37.534;-122.308;2023-03-21T16:16:24;16.67;;;5.82;;
69057;SDS011;56128;37.534;-122.308;2023-03-21T16:18:52;11.68;;;4.90;;
69057;SDS011;56128;37.534;-122.308;2023-03-21T16:21:22;9.55;;;4.95;;